Detalii statie SCHWAB AGRO ARDUD [00001CF5]

Toti senzorii

Date Temperatura solului [C]Precipitatii [mm]Voltaj baterie [mV]Leaf Wetness [Min]HC Air temperature [C]HC Relative humidity [%]Punctul de roua [C]
medieminmaxsumaultimatimpmedieminmaxmediemediemin
2018-02-23 13:00:00 0 6132 4.85 4.44 5.46 0 0 0
2018-02-23 14:00:00 0 6142 5.28 4.68 5.64 0 0 0
2018-02-23 15:00:00 0 6132 4.26 4.07 4.58 0 0 0
2018-02-23 16:00:00 0 6122 4.11 3.98 4.32 0 0 0
2018-02-23 17:00:00 0.2 6112 3.62 3.16 3.95 0 0 0
2018-02-23 18:00:00 0.4 6112 2.73 2.11 3.12 0 0 0
2018-02-23 19:00:00 0.2 6112 1.6 1.36 2.06 0 0 0
2018-02-23 20:00:00 0.2 6102 0.63 0.25 1.31 0 0 0
2018-02-23 21:00:00 0 6112 0 -0.19 0.23 0 0 0
2018-02-23 22:00:00 0 6112 -0.47 -0.68 -0.29 0 0 0
2018-02-23 23:00:00 0 6112 -0.97 -1.25 -0.76 0 0 0
2018-02-24 00:00:00 0 6102 -1.24 -1.35 -1.16 0 0 0
2018-02-24 01:00:00 0 6102 -1.46 -1.6 -1.34 0 0 0
2018-02-24 02:00:00 0 6102 -1.79 -1.98 -1.63 0 0 0
2018-02-24 03:00:00 0 6102 -2.15 -2.36 -2.01 0 0 0
2018-02-24 04:00:00 0 6102 -2.71 -2.98 -2.42 0 0 0
2018-02-24 05:00:00 0 6102 -3.27 -3.61 -3.04 0 0 0
2018-02-24 06:00:00 0 6102 -4.08 -4.3 -3.74 0 0 0
2018-02-24 07:00:00 0 6092 -4.58 -4.81 -4.32 0 0 0
2018-02-24 08:00:00 0 6102 -4.88 -5.05 -4.71 0 0 0
2018-02-24 09:00:00 0 6102 -4.25 -4.69 -3.86 0 0 0
2018-02-24 10:00:00 0 6122 -3.57 -4.03 -3.25 0 0 0
2018-02-24 11:00:00 0 6142 -2.52 -3.24 -2 0 0 0
2018-02-24 12:00:00 0 6162 -1.39 -1.8 -0.94 0 0 0
2018-02-24 13:00:00 0 6200 -0.51 -0.93 0.3 0 0 0
2018-02-24 14:00:00 0.2 6230 0.73 0.44 1.12 0 0 0
2018-02-24 15:00:00 0 6240 0.98 0.74 1.29 0 0 0
2018-02-24 16:00:00 0 6220 0.58 0.17 0.95 0 0 0
2018-02-24 17:00:00 0 6190 -0.26 -0.61 0.15 0 0 0
2018-02-24 18:00:00 0 6170 -1.12 -1.6 -0.72 0 0 0
2018-02-24 19:00:00 0 6162 -2.4 -3.15 -1.76 0 0 0
2018-02-24 20:00:00 0 6142 -3.79 -4.21 -3.27 0 0 0
2018-02-24 21:00:00 0 6132 -4.57 -4.82 -4.27 0 0 0
2018-02-24 22:00:00 0 6152 -5.05 -5.16 -4.87 0 0 0
2018-02-24 23:00:00 0 6142 -5.05 -5.17 -4.9 0 0 0
2018-02-25 00:00:00 0 6132 -5.03 -5.18 -4.81 0 0 0
2018-02-25 01:00:00 0 6142 -4.9 -5.04 -4.79 0 0 0
2018-02-25 02:00:00 0 6142 -5.2 -5.47 -4.99 0 0 0
2018-02-25 03:00:00 0 6142 -5.93 -6.48 -5.54 0 0 0
2018-02-25 04:00:00 0 6142 -6.97 -7.28 -6.48 0 0 0
2018-02-25 05:00:00 0 6142 -7.41 -7.54 -7.28 0 0 0
2018-02-25 06:00:00 0 6142 -7.42 -7.74 -7.2 0 0 0
2018-02-25 07:00:00 0 6142 -8.2 -8.37 -7.75 0 0 0
2018-02-25 08:00:00 0 6122 -8.35 -8.43 -8.28 0 0 0
2018-02-25 09:00:00 0 6132 -7.35 -8.18 -6.39 0 0 0
2018-02-25 10:00:00 0 6132 -5.55 -6.36 -4.94 0 0 0
2018-02-25 11:00:00 0 6162 -4.43 -5.45 -3.71 0 0 0
2018-02-25 12:00:00 0 6200 -3.2 -3.88 -2.67 0 0 0